Time;durP1;ratioP1;P1;durP2;ratioP2;P2;SDS_P1;SDS_P2;PMS_P1;PMS_P2;Temp;Humidity;BMP_temperature;BMP_pressure;BME280_temperature;BME280_humidity;BME280_pressure;Samples;Min_cycle;Max_cycle;Signal;HPM_P1;HPM_P2
2024/02/29 00:01:57;;;;;;;4.93;2.40;;;13.40;79.30;;;;;;5041623;28;20079;-81
2024/02/29 00:04:41;;;;;;;3.97;2.50;;;13.40;79.30;;;;;;5040731;28;20031;-79
2024/02/29 00:07:26;;;;;;;2.60;1.70;;;13.30;79.00;;;;;;5045688;28;20048;-79
2024/02/29 00:10:11;;;;;;;2.97;2.00;;;13.30;79.00;;;;;;5040121;28;20450;-79
2024/02/29 00:12:56;;;;;;;4.20;1.85;;;13.30;79.00;;;;;;5038435;28;20282;-80
2024/02/29 00:15:41;;;;;;;2.35;1.75;;;13.30;78.90;;;;;;5036026;28;20051;-80
2024/02/29 00:18:25;;;;;;;3.10;1.90;;;13.30;78.90;;;;;;5037004;28;20040;-79
2024/02/29 00:21:10;;;;;;;3.42;1.95;;;13.30;78.80;;;;;;5036097;28;20188;-80
2024/02/29 00:23:55;;;;;;;2.17;1.60;;;13.30;78.70;;;;;;5038233;28;20068;-79
2024/02/29 00:26:40;;;;;;;3.17;1.38;;;13.30;78.70;;;;;;5043948;28;20043;-79
2024/02/29 00:29:27;;;;;;;5.05;2.47;;;13.30;78.60;;;;;;5036479;28;20079;-79
2024/02/29 00:32:11;;;;;;;2.53;1.23;;;13.30;78.60;;;;;;5040550;28;20216;-79
2024/02/29 00:34:57;;;;;;;2.47;1.50;;;13.30;78.50;;;;;;5030244;28;20095;-79
2024/02/29 00:37:41;;;;;;;1.90;1.30;;;13.30;78.50;;;;;;5039945;28;20107;-81
2024/02/29 00:40:26;;;;;;;2.63;1.20;;;13.30;78.40;;;;;;5029804;28;20044;-81
2024/02/29 00:43:11;;;;;;;2.47;1.25;;;13.30;78.40;;;;;;5036492;28;20052;-79
2024/02/29 00:45:55;;;;;;;2.45;1.23;;;13.30;78.30;;;;;;5035419;28;20740;-81
2024/02/29 00:48:40;;;;;;;2.60;1.45;;;13.30;78.30;;;;;;5035269;28;20098;-81
2024/02/29 00:51:24;;;;;;;1.95;1.17;;;13.20;78.20;;;;;;5033820;28;20923;-82
2024/02/29 00:54:10;;;;;;;3.58;1.25;;;13.20;78.10;;;;;;5027140;28;20531;-82
2024/02/29 00:56:54;;;;;;;1.30;1.08;;;13.20;78.00;;;;;;5036248;28;20155;-81
2024/02/29 00:59:39;;;;;;;2.15;1.20;;;13.20;78.00;;;;;;5040312;28;20087;-81
2024/02/29 01:02:24;;;;;;;2.80;1.10;;;13.20;78.00;;;;;;5033290;28;20534;-81
2024/02/29 01:05:08;;;;;;;3.70;1.30;;;13.20;77.90;;;;;;5039197;28;20063;-81
2024/02/29 01:07:53;;;;;;;4.15;1.08;;;13.20;77.90;;;;;;5036935;28;20128;-81
2024/02/29 01:10:38;;;;;;;1.58;1.02;;;13.20;77.90;;;;;;5035341;28;20594;-82
2024/02/29 01:13:23;;;;;;;2.20;0.95;;;13.20;77.90;;;;;;5042238;28;20064;-81
2024/02/29 01:16:08;;;;;;;2.42;1.10;;;13.20;77.90;;;;;;5032954;28;20087;-82
2024/02/29 01:18:52;;;;;;;2.03;1.13;;;13.20;77.90;;;;;;5041960;28;20044;-80
2024/02/29 01:21:38;;;;;;;2.30;0.98;;;13.20;77.80;;;;;;5040027;28;20117;-80
2024/02/29 01:24:24;;;;;;;2.20;1.00;;;13.20;77.80;;;;;;5038369;28;20044;-80
2024/02/29 01:27:08;;;;;;;1.70;1.10;;;13.10;77.50;;;;;;5037520;28;20551;-80
2024/02/29 01:29:53;;;;;;;2.78;0.82;;;13.20;77.70;;;;;;5031793;28;20473;-80
2024/02/29 01:32:38;;;;;;;2.92;1.10;;;13.10;77.50;;;;;;5045445;28;20127;-80
2024/02/29 01:35:22;;;;;;;1.05;0.90;;;13.20;77.60;;;;;;5035980;28;20596;-80
2024/02/29 01:38:07;;;;;;;2.58;1.20;;;13.10;77.50;;;;;;5042477;28;20043;-81
2024/02/29 01:40:52;;;;;;;2.33;0.95;;;13.10;77.50;;;;;;5032643;28;20044;-80
2024/02/29 01:43:37;;;;;;;3.97;0.85;;;13.20;77.60;;;;;;5038712;28;20047;-80
2024/02/29 01:46:23;;;;;;;2.97;1.13;;;13.10;77.50;;;;;;5036120;28;20043;-80
2024/02/29 01:49:08;;;;;;;3.25;0.90;;;13.10;77.50;;;;;;5050946;28;20511;-79
2024/02/29 01:51:54;;;;;;;1.10;1.00;;;13.10;77.50;;;;;;5033692;28;20510;-80
2024/02/29 01:54:39;;;;;;;2.25;0.98;;;13.10;77.40;;;;;;5032716;28;20064;-79
2024/02/29 01:57:25;;;;;;;3.33;1.67;;;13.10;77.40;;;;;;5037503;28;20094;-80
2024/02/29 02:00:10;;;;;;;3.65;1.25;;;13.10;77.40;;;;;;5034154;28;20067;-80
2024/02/29 02:02:56;;;;;;;1.70;0.88;;;13.10;77.40;;;;;;5028926;28;20044;-79
2024/02/29 02:05:40;;;;;;;0.98;0.80;;;13.10;77.40;;;;;;5039999;28;20087;-79
2024/02/29 02:08:29;;;;;;;1.30;0.77;;;13.00;77.10;;;;;;5040859;28;20460;-79
2024/02/29 02:11:14;;;;;;;1.55;0.70;;;13.00;77.10;;;;;;5038846;28;20426;-79
2024/02/29 02:13:58;;;;;;;3.17;1.90;;;13.00;77.10;;;;;;5035961;28;20070;-79
2024/02/29 02:16:43;;;;;;;2.78;1.00;;;13.00;77.20;;;;;;5039694;28;20395;-80
2024/02/29 02:19:28;;;;;;;1.48;0.82;;;13.00;77.20;;;;;;5029949;28;20068;-80
2024/02/29 02:22:13;;;;;;;1.90;0.90;;;13.00;77.10;;;;;;5035927;28;20039;-80
2024/02/29 02:24:58;;;;;;;1.95;0.85;;;13.00;77.10;;;;;;5035984;28;20048;-81
2024/02/29 02:27:43;;;;;;;2.40;0.90;;;13.00;77.10;;;;;;5023161;28;20043;-81
2024/02/29 02:30:28;;;;;;;1.48;0.70;;;13.00;77.20;;;;;;5044887;28;20044;-81
2024/02/29 02:33:14;;;;;;;1.35;0.80;;;13.00;77.10;;;;;;5034949;28;20068;-80
2024/02/29 02:35:59;;;;;;;2.15;0.90;;;13.00;77.10;;;;;;5036935;28;20139;-83
2024/02/29 02:38:44;;;;;;;2.05;0.85;;;13.00;77.10;;;;;;5034885;28;20372;-79
2024/02/29 02:41:28;;;;;;;2.83;1.10;;;13.00;77.10;;;;;;5043287;28;20099;-80
2024/02/29 02:44:13;;;;;;;4.38;1.50;;;13.00;77.10;;;;;;5035579;28;20180;-81
2024/02/29 02:46:57;;;;;;;1.98;1.10;;;13.00;77.10;;;;;;5035303;28;20075;-81
2024/02/29 02:49:42;;;;;;;3.60;1.17;;;13.00;77.10;;;;;;5036209;28;20048;-82
2024/02/29 02:52:26;;;;;;;1.63;0.77;;;13.00;77.10;;;;;;5022597;28;20048;-82
2024/02/29 02:55:11;;;;;;;2.97;0.90;;;13.00;77.00;;;;;;5046705;28;20047;-80
2024/02/29 02:57:55;;;;;;;1.13;0.88;;;13.00;77.00;;;;;;5049182;28;20066;-81
2024/02/29 03:00:41;;;;;;;2.10;0.77;;;13.00;77.00;;;;;;5047528;28;20060;-80
2024/02/29 03:03:26;;;;;;;1.48;0.80;;;12.90;76.90;;;;;;5035841;28;20044;-80
2024/02/29 03:06:13;;;;;;;2.55;1.10;;;12.90;76.90;;;;;;5040514;28;20056;-80
2024/02/29 03:08:58;;;;;;;2.25;1.30;;;12.90;76.90;;;;;;5045310;28;20125;-81
2024/02/29 03:11:43;;;;;;;2.50;0.82;;;12.90;76.90;;;;;;5046484;28;20044;-81
2024/02/29 03:14:29;;;;;;;2.53;0.90;;;12.90;76.90;;;;;;5053556;28;20090;-82
2024/02/29 03:17:14;;;;;;;3.50;0.98;;;12.90;76.90;;;;;;5040633;28;20111;-83
2024/02/29 03:19:59;;;;;;;1.70;0.65;;;12.90;76.90;;;;;;5042549;28;20309;-79
2024/02/29 03:22:45;;;;;;;4.20;1.17;;;12.90;76.90;;;;;;5042988;28;20553;-82
2024/02/29 03:25:30;;;;;;;2.85;2.13;;;12.90;76.90;;;;;;5029779;28;20048;-82
2024/02/29 03:28:14;;;;;;;1.48;0.80;;;12.90;76.90;;;;;;5046522;28;20040;-81
2024/02/29 03:31:00;;;;;;;1.70;0.75;;;12.90;76.90;;;;;;5049468;28;20047;-82
2024/02/29 03:33:45;;;;;;;5.07;2.15;;;12.90;76.90;;;;;;5040499;28;20527;-82
2024/02/29 03:36:29;;;;;;;4.53;0.82;;;12.90;76.90;;;;;;5046563;28;20052;-81
2024/02/29 03:39:14;;;;;;;1.95;0.60;;;12.90;76.90;;;;;;5050829;28;20040;-80
2024/02/29 03:41:59;;;;;;;2.08;0.70;;;12.90;76.90;;;;;;5039621;28;20088;-80
2024/02/29 03:44:45;;;;;;;5.45;1.00;;;12.90;76.90;;;;;;5043701;28;20067;-81
2024/02/29 03:47:31;;;;;;;2.70;0.80;;;12.90;76.80;;;;;;5040676;28;20086;-81
2024/02/29 03:50:15;;;;;;;1.80;0.70;;;12.90;76.90;;;;;;5023675;28;20083;-81
2024/02/29 03:53:00;;;;;;;3.90;1.67;;;12.80;76.70;;;;;;5036437;28;20335;-80
2024/02/29 03:55:47;;;;;;;3.55;0.80;;;12.80;76.70;;;;;;5045518;28;20125;-81
2024/02/29 03:58:32;;;;;;;2.80;0.85;;;12.80;76.70;;;;;;5028709;28;20043;-81
2024/02/29 04:01:18;;;;;;;3.30;0.75;;;12.80;76.70;;;;;;5049509;28;20428;-81
2024/02/29 04:04:02;;;;;;;3.13;0.70;;;12.80;76.70;;;;;;5043918;28;20587;-81
2024/02/29 04:06:47;;;;;;;2.38;0.85;;;12.80;76.70;;;;;;5041707;28;20503;-81
2024/02/29 04:09:32;;;;;;;2.20;0.85;;;12.80;76.70;;;;;;5052503;28;20115;-82
2024/02/29 04:12:17;;;;;;;3.33;1.35;;;12.80;76.70;;;;;;5049008;28;20079;-83
2024/02/29 04:15:01;;;;;;;4.18;0.98;;;12.80;76.70;;;;;;5048356;28;20047;-83
2024/02/29 04:17:47;;;;;;;2.22;1.10;;;12.80;76.70;;;;;;5042977;28;20497;-83
2024/02/29 04:20:32;;;;;;;3.97;0.95;;;12.80;76.70;;;;;;5044576;28;20043;-83
2024/02/29 04:23:17;;;;;;;5.05;1.25;;;12.80;77.20;;;;;;5042992;28;20036;-83
2024/02/29 04:26:02;;;;;;;4.97;1.02;;;12.70;76.60;;;;;;5041118;28;20051;-82
2024/02/29 04:28:48;;;;;;;4.25;0.95;;;12.80;76.70;;;;;;5037550;28;20051;-81
2024/02/29 04:31:34;;;;;;;4.32;1.67;;;12.80;76.70;;;;;;5045739;28;20054;-81
2024/02/29 04:34:18;;;;;;;2.70;0.90;;;12.80;77.20;;;;;;5048422;28;20039;-82
2024/02/29 04:37:03;;;;;;;2.40;1.20;;;12.80;76.70;;;;;;5029030;28;20059;-81
2024/02/29 04:39:48;;;;;;;2.60;0.70;;;12.80;76.70;;;;;;5015922;28;20094;-80
2024/02/29 04:42:32;;;;;;;2.47;0.90;;;12.80;76.70;;;;;;5046591;28;20056;-81
2024/02/29 04:45:16;;;;;;;4.88;1.15;;;12.80;76.70;;;;;;5045218;28;20079;-79
2024/02/29 04:48:01;;;;;;;5.65;1.17;;;12.80;76.70;;;;;;5042210;28;20036;-81
2024/02/29 04:50:46;;;;;;;1.83;0.63;;;12.80;76.70;;;;;;5038538;28;20035;-81
2024/02/29 04:53:30;;;;;;;2.72;0.65;;;12.80;76.70;;;;;;5039510;28;20094;-81
2024/02/29 04:56:15;;;;;;;1.98;1.70;;;12.80;76.60;;;;;;5041021;28;20052;-81
2024/02/29 04:59:00;;;;;;;3.13;1.00;;;12.80;76.70;;;;;;5051661;28;20122;-81
2024/02/29 05:01:45;;;;;;;1.98;0.70;;;12.80;76.60;;;;;;5044755;28;20071;-81
2024/02/29 05:04:29;;;;;;;3.38;0.73;;;12.80;76.70;;;;;;5045861;28;20044;-81
2024/02/29 05:07:17;;;;;;;1.67;0.80;;;12.80;76.70;;;;;;5045484;28;20163;-81
2024/02/29 05:10:02;;;;;;;2.40;0.80;;;12.70;76.50;;;;;;5051778;28;20052;-81
2024/02/29 05:12:50;;;;;;;2.33;0.77;;;12.70;76.50;;;;;;5049644;28;20099;-81
2024/02/29 05:15:35;;;;;;;1.38;0.80;;;12.70;76.50;;;;;;5038046;28;20039;-80
2024/02/29 05:18:20;;;;;;;3.05;0.75;;;12.70;76.50;;;;;;5042432;28;20088;-84
2024/02/29 05:21:04;;;;;;;4.50;0.93;;;12.70;76.50;;;;;;5027371;28;20039;-83
2024/02/29 05:23:49;;;;;;;1.98;0.65;;;12.70;76.50;;;;;;5035116;28;20048;-83
2024/02/29 05:26:33;;;;;;;1.95;1.10;;;12.60;76.30;;;;;;5039098;28;20059;-82
2024/02/29 05:29:18;;;;;;;2.30;0.98;;;12.60;76.30;;;;;;5040744;28;20084;-81
2024/02/29 05:32:03;;;;;;;0.93;0.50;;;12.60;76.30;;;;;;5038226;28;20119;-81
2024/02/29 05:34:47;;;;;;;2.00;0.52;;;12.60;76.30;;;;;;5040861;28;20044;-83
2024/02/29 05:37:34;;;;;;;3.50;1.25;;;12.60;76.30;;;;;;5041560;28;20071;-82
2024/02/29 05:40:18;;;;;;;1.52;0.60;;;12.60;76.30;;;;;;5050129;28;20136;-82
2024/02/29 05:43:03;;;;;;;1.60;0.80;;;12.50;76.10;;;;;;5048902;28;20075;-84
2024/02/29 05:45:47;;;;;;;1.23;0.50;;;12.50;76.20;;;;;;5037904;28;20241;-80
2024/02/29 05:48:35;;;;;;;2.17;0.70;;;12.50;76.20;;;;;;5033577;28;20048;-83
2024/02/29 05:51:19;;;;;;;1.98;0.82;;;12.50;76.20;;;;;;5035713;28;20068;-84
2024/02/29 05:54:04;;;;;;;1.45;0.70;;;12.40;76.00;;;;;;5042902;28;20598;-84
2024/02/29 05:56:48;;;;;;;0.60;0.50;;;12.40;76.00;;;;;;5040194;28;20428;-83
2024/02/29 05:59:33;;;;;;;1.75;1.02;;;12.40;76.00;;;;;;5040275;28;20040;-84
2024/02/29 06:02:18;;;;;;;2.60;0.70;;;12.40;76.00;;;;;;5036586;28;20040;-84
2024/02/29 06:05:02;;;;;;;1.38;1.15;;;12.40;75.90;;;;;;5043072;28;20075;-85
2024/02/29 06:07:47;;;;;;;1.30;0.80;;;12.40;75.90;;;;;;5040027;28;20051;-82
2024/02/29 06:10:31;;;;;;;2.53;0.90;;;12.40;75.90;;;;;;5051487;28;20113;-81
2024/02/29 06:13:16;;;;;;;2.80;0.90;;;12.40;75.90;;;;;;5038043;28;20067;-85
2024/02/29 06:16:03;;;;;;;3.28;1.08;;;12.30;75.80;;;;;;5039312;28;20363;-85
2024/02/29 06:18:48;;;;;;;3.10;0.80;;;12.30;75.80;;;;;;5045877;28;20455;-80
2024/02/29 06:21:32;;;;;;;1.20;1.00;;;12.30;75.80;;;;;;5037393;28;20415;-80
2024/02/29 06:24:18;;;;;;;3.15;0.80;;;12.30;75.80;;;;;;5033653;28;20036;-80
2024/02/29 06:27:03;;;;;;;3.22;1.10;;;12.30;75.80;;;;;;5040220;28;20036;-80
2024/02/29 06:29:47;;;;;;;2.08;0.90;;;12.20;75.60;;;;;;5043917;28;20656;-80
2024/02/29 06:32:32;;;;;;;3.45;1.20;;;12.30;75.70;;;;;;5036564;28;20705;-80
2024/02/29 06:35:17;;;;;;;2.47;0.82;;;12.20;75.60;;;;;;5039727;28;20107;-80
2024/02/29 06:38:01;;;;;;;2.63;0.90;;;12.20;75.80;;;;;;5039815;28;20404;-80
2024/02/29 06:40:46;;;;;;;3.80;1.25;;;12.20;75.60;;;;;;5041640;28;20064;-79
2024/02/29 06:43:31;;;;;;;2.38;1.10;;;12.20;75.60;;;;;;5041988;28;20246;-80
2024/02/29 06:46:16;;;;;;;2.60;1.15;;;12.20;75.60;;;;;;5040190;28;20039;-80
2024/02/29 06:49:01;;;;;;;3.28;1.30;;;12.10;75.50;;;;;;5040535;28;20627;-80
2024/02/29 06:51:46;;;;;;;4.72;1.10;;;12.10;75.50;;;;;;5036868;28;20396;-81
2024/02/29 06:54:31;;;;;;;2.83;1.48;;;12.10;75.50;;;;;;5036890;28;20397;-81
2024/02/29 06:57:15;;;;;;;4.95;1.10;;;12.10;75.50;;;;;;5037924;28;20550;-81
2024/02/29 07:00:00;;;;;;;2.67;1.30;;;12.10;75.50;;;;;;5031932;28;20360;-80
2024/02/29 07:02:45;;;;;;;4.78;1.13;;;12.10;75.50;;;;;;5039736;28;20083;-78
2024/02/29 07:05:30;;;;;;;4.32;1.45;;;12.10;75.50;;;;;;5034510;28;20114;-78
2024/02/29 07:08:15;;;;;;;3.80;1.17;;;12.00;75.30;;;;;;5038318;28;20093;-78
2024/02/29 07:11:00;;;;;;;5.00;1.58;;;12.10;75.50;;;;;;5040648;28;20043;-78
2024/02/29 07:13:46;;;;;;;2.92;1.55;;;12.00;75.30;;;;;;5036139;28;20085;-78
2024/02/29 07:16:32;;;;;;;4.05;1.98;;;12.00;75.30;;;;;;5034799;28;20202;-77
2024/02/29 07:19:17;;;;;;;7.13;1.52;;;12.00;75.30;;;;;;5038107;28;20091;-78
2024/02/29 07:22:03;;;;;;;4.63;1.55;;;12.00;75.30;;;;;;5040340;28;20064;-79
2024/02/29 07:24:48;;;;;;;4.95;1.80;;;12.00;75.30;;;;;;5032562;28;20031;-78
2024/02/29 07:27:32;;;;;;;5.70;1.80;;;12.00;75.30;;;;;;5038056;28;20657;-80
2024/02/29 07:30:18;;;;;;;4.45;1.40;;;12.00;75.30;;;;;;5035925;28;20043;-78
2024/02/29 07:33:04;;;;;;;5.28;1.50;;;12.00;75.30;;;;;;5033271;28;20047;-77
2024/02/29 07:35:49;;;;;;;4.43;1.80;;;12.00;75.30;;;;;;5035113;28;20052;-76
2024/02/29 07:38:33;;;;;;;5.25;1.35;;;12.00;75.30;;;;;;5045159;28;20133;-79
2024/02/29 07:41:18;;;;;;;5.20;1.52;;;12.00;75.20;;;;;;5034108;28;20100;-79
2024/02/29 07:44:03;;;;;;;5.60;1.75;;;12.00;75.20;;;;;;5032993;28;20047;-79
2024/02/29 07:46:47;;;;;;;4.75;2.03;;;12.00;75.20;;;;;;5025010;28;20471;-81
2024/02/29 07:49:32;;;;;;;4.75;1.27;;;12.00;75.20;;;;;;5041399;28;20107;-80
2024/02/29 07:52:17;;;;;;;4.25;1.55;;;12.00;75.20;;;;;;5031202;28;20088;-80
2024/02/29 07:55:02;;;;;;;5.28;2.38;;;12.00;75.20;;;;;;5035981;28;20048;-81
2024/02/29 07:57:46;;;;;;;7.70;2.05;;;12.00;75.20;;;;;;5045839;28;20459;-80
2024/02/29 08:00:31;;;;;;;7.22;1.70;;;12.00;75.20;;;;;;5042955;28;20052;-79
2024/02/29 08:03:16;;;;;;;5.45;1.45;;;12.00;75.20;;;;;;5035243;28;20138;-80
2024/02/29 08:06:01;;;;;;;5.45;1.65;;;12.10;75.30;;;;;;5040645;28;20044;-80
2024/02/29 08:08:45;;;;;;;5.75;1.50;;;12.10;75.30;;;;;;5042448;28;20793;-80
2024/02/29 08:11:30;;;;;;;6.82;2.38;;;12.10;75.30;;;;;;5036546;28;20140;-80
2024/02/29 08:14:15;;;;;;;6.80;2.28;;;12.10;75.20;;;;;;5031152;28;20090;-80
2024/02/29 08:16:59;;;;;;;4.97;1.65;;;12.10;75.20;;;;;;5038380;28;20132;-80
2024/02/29 08:19:44;;;;;;;7.85;1.95;;;12.10;75.10;;;;;;5035118;28;20044;-80
2024/02/29 08:22:29;;;;;;;8.70;2.30;;;12.20;75.30;;;;;;5027969;28;20044;-79
2024/02/29 08:25:13;;;;;;;8.57;2.40;;;12.20;75.20;;;;;;5039074;28;20044;-79
2024/02/29 08:27:58;;;;;;;6.10;1.88;;;12.20;75.20;;;;;;5025169;28;20091;-80
2024/02/29 08:30:43;;;;;;;7.25;2.45;;;12.20;75.20;;;;;;5029631;28;20611;-79
2024/02/29 08:33:28;;;;;;;4.57;1.90;;;12.20;75.10;;;;;;5033134;28;20056;-81
2024/02/29 08:36:13;;;;;;;5.80;2.05;;;12.30;75.30;;;;;;5056218;28;20527;-79
2024/02/29 08:38:58;;;;;;;5.63;1.77;;;12.30;75.10;;;;;;5048022;28;20862;-79
2024/02/29 08:41:44;;;;;;;6.50;2.13;;;12.30;75.30;;;;;;5021505;28;20117;-80
2024/02/29 08:44:28;;;;;;;6.22;2.40;;;12.40;75.30;;;;;;5030624;28;20524;-79
2024/02/29 08:47:13;;;;;;;8.00;2.08;;;12.40;75.20;;;;;;5020259;28;20090;-79
2024/02/29 08:49:58;;;;;;;6.72;2.80;;;12.40;75.10;;;;;;5028149;28;20569;-79
2024/02/29 08:52:43;;;;;;;6.55;2.47;;;12.40;75.10;;;;;;5023278;28;20036;-77
2024/02/29 08:55:30;;;;;;;5.65;2.10;;;12.50;75.10;;;;;;5026478;28;20043;-78
2024/02/29 08:58:14;;;;;;;5.80;2.00;;;12.50;75.10;;;;;;5032280;28;20035;-78
2024/02/29 09:01:00;;;;;;;5.72;2.33;;;12.50;75.00;;;;;;5030776;28;20040;-77
2024/02/29 09:03:45;;;;;;;5.45;1.90;;;12.60;75.30;;;;;;5035402;28;20075;-76
2024/02/29 09:06:30;;;;;;;5.60;1.70;;;12.60;75.40;;;;;;5034594;28;20527;-77
2024/02/29 09:09:16;;;;;;;8.48;2.17;;;12.70;75.60;;;;;;5033885;28;20052;-77
2024/02/29 09:12:01;;;;;;;6.45;2.05;;;12.70;75.60;;;;;;5025029;28;20571;-78
2024/02/29 09:14:46;;;;;;;6.55;2.13;;;12.80;75.70;;;;;;5043941;28;20461;-79
2024/02/29 09:17:31;;;;;;;18.17;4.70;;;12.80;75.80;;;;;;5012784;28;20085;-80
2024/02/29 09:20:16;;;;;;;17.45;5.25;;;12.90;76.20;;;;;;5024222;28;20068;-77
2024/02/29 09:23:00;;;;;;;24.00;5.72;;;12.90;76.30;;;;;;5033054;28;20500;-79
2024/02/29 09:25:45;;;;;;;31.20;8.02;;;13.00;76.60;;;;;;5026969;28;20370;-80
2024/02/29 09:28:35;;;;;;;33.28;7.43;;;13.10;76.80;;;;;;5028425;28;20060;-79
2024/02/29 09:31:20;;;;;;;22.73;5.43;;;13.20;77.10;;;;;;5022646;28;20095;-79
2024/02/29 09:34:04;;;;;;;18.58;4.63;;;13.30;77.30;;;;;;5028526;28;20083;-80
2024/02/29 09:36:49;;;;;;;15.90;4.38;;;13.40;77.50;;;;;;5041781;28;20082;-81
2024/02/29 09:39:34;;;;;;;18.60;5.47;;;13.50;77.70;;;;;;5049778;28;20093;-82
2024/02/29 09:42:19;;;;;;;16.30;5.25;;;13.60;77.80;;;;;;5056337;28;20044;-82
2024/02/29 09:45:12;;;;;;;11.85;3.50;;;13.70;77.80;;;;;;5046421;28;20269;-82
2024/02/29 09:47:58;;;;;;;13.68;3.60;;;13.90;78.00;;;;;;5048770;28;20048;-82
2024/02/29 09:50:42;;;;;;;12.73;3.08;;;14.00;77.90;;;;;;5030374;28;20056;-82
2024/02/29 09:53:28;;;;;;;9.55;3.28;;;14.10;77.90;;;;;;5040822;28;20553;-82
2024/02/29 09:56:14;;;;;;;10.45;2.95;;;14.20;77.90;;;;;;5045803;28;20102;-84
2024/02/29 09:59:00;;;;;;;10.13;3.03;;;14.40;78.10;;;;;;5020079;28;20062;-82
2024/02/29 10:01:49;;;;;;;12.35;3.20;;;14.60;78.20;;;;;;5046088;28;20087;-81
2024/02/29 10:04:34;;;;;;;10.70;2.70;;;14.80;78.20;;;;;;5046591;28;20447;-80
2024/02/29 10:07:19;;;;;;;9.73;3.20;;;15.00;78.20;;;;;;5034510;28;20575;-81
2024/02/29 10:10:09;;;;;;;11.20;3.13;;;15.10;77.90;;;;;;5027018;28;20126;-83
2024/02/29 10:12:55;;;;;;;11.50;3.08;;;15.20;77.70;;;;;;5030872;28;20086;-83
2024/02/29 10:15:42;;;;;;;10.00;3.42;;;15.30;77.60;;;;;;5032357;28;20714;-83
2024/02/29 10:18:32;;;;;;;6.70;2.85;;;15.40;77.50;;;;;;5027417;28;20069;-82
2024/02/29 10:21:19;;;;;;;12.73;2.83;;;15.50;77.50;;;;;;5020342;28;20142;-81
2024/02/29 10:24:05;;;;;;;8.38;2.42;;;15.50;77.30;;;;;;5021488;28;20091;-81
2024/02/29 10:26:50;;;;;;;8.57;2.78;;;15.60;77.30;;;;;;5019326;28;20050;-79
2024/02/29 10:29:34;;;;;;;6.55;2.83;;;15.60;77.10;;;;;;5025586;28;20052;-80
2024/02/29 10:32:20;;;;;;;8.57;3.00;;;15.70;77.10;;;;;;5021170;28;20106;-80
2024/02/29 10:35:26;;;;;;;8.25;2.97;;;15.70;76.90;;;;;;5034524;28;20076;-80
2024/02/29 10:38:11;;;;;;;7.88;2.95;;;15.80;76.90;;;;;;5039898;28;20036;-80
2024/02/29 10:41:00;;;;;;;7.47;2.72;;;15.80;76.70;;;;;;5021671;28;20091;-79
2024/02/29 10:43:45;;;;;;;7.38;2.83;;;15.90;76.70;;;;;;5035512;28;20543;-79
2024/02/29 10:46:31;;;;;;;6.95;2.75;;;16.00;76.60;;;;;;5029995;28;20502;-79
2024/02/29 10:49:29;;;;;;;10.13;2.30;;;16.00;76.40;;;;;;5022720;28;20061;-79
2024/02/29 10:52:23;;;;;;;5.93;2.35;;;16.10;76.20;;;;;;5020335;28;20471;-81
2024/02/29 10:55:13;;;;;;;8.68;2.72;;;16.20;76.10;;;;;;5034473;28;20047;-80
2024/02/29 10:58:21;;;;;;;9.05;2.15;;;16.20;75.80;;;;;;5035886;28;20802;-80
2024/02/29 11:01:06;;;;;;;7.55;2.58;;;16.30;75.70;;;;;;5035411;28;20106;-80
2024/02/29 11:03:50;;;;;;;6.65;2.30;;;16.30;75.50;;;;;;5036635;28;20091;-79
2024/02/29 11:06:48;;;;;;;7.28;2.53;;;16.30;75.30;;;;;;5028404;28;20183;-79
2024/02/29 11:09:33;;;;;;;9.25;2.50;;;16.30;75.10;;;;;;5030978;28;20087;-79
2024/02/29 11:12:21;;;;;;;6.50;1.92;;;16.30;75.00;;;;;;5036277;28;20120;-80
2024/02/29 11:15:11;;;;;;;9.50;2.78;;;16.30;74.70;;;;;;5026227;28;20116;-79
2024/02/29 11:17:57;;;;;;;8.23;2.17;;;16.30;74.40;;;;;;5025027;28;20103;-79
2024/02/29 11:20:42;;;;;;;5.85;2.33;;;16.40;74.40;;;;;;5037030;28;20099;-80
2024/02/29 11:23:34;;;;;;;7.68;2.63;;;16.40;74.20;;;;;;5035202;28;20040;-79
2024/02/29 11:26:27;;;;;;;4.57;1.67;;;16.40;73.90;;;;;;5036787;28;20089;-79
2024/02/29 11:29:15;;;;;;;4.95;1.65;;;16.40;73.70;;;;;;5031271;28;20060;-80
2024/02/29 11:31:59;;;;;;;5.78;2.63;;;16.40;73.50;;;;;;5028548;28;20101;-80
2024/02/29 11:34:44;;;;;;;5.55;1.77;;;16.40;73.30;;;;;;5028967;28;20067;-79
2024/02/29 11:37:29;;;;;;;7.97;2.33;;;16.50;73.30;;;;;;5033856;28;20127;-79
2024/02/29 11:40:18;;;;;;;7.30;2.22;;;16.40;72.90;;;;;;5030628;28;20056;-80
2024/02/29 11:43:07;;;;;;;5.28;2.08;;;16.50;72.90;;;;;;5037621;28;20043;-80
2024/02/29 11:45:51;;;;;;;8.05;2.10;;;16.50;72.70;;;;;;5044731;28;20036;-80
2024/02/29 11:48:38;;;;;;;11.88;3.97;;;16.50;73.10;;;;;;5031774;28;20538;-80
2024/02/29 11:51:24;;;;;;;5.15;2.28;;;16.50;72.40;;;;;;5032919;28;20393;-81
2024/02/29 11:54:09;;;;;;;4.10;2.10;;;16.40;72.10;;;;;;5046052;28;20044;-80
2024/02/29 11:56:54;;;;;;;6.35;1.85;;;16.40;72.00;;;;;;5022631;28;20472;-79
2024/02/29 11:59:39;;;;;;;6.05;2.33;;;16.40;71.90;;;;;;5036853;28;20044;-80
2024/02/29 12:02:23;;;;;;;10.52;3.20;;;16.40;71.90;;;;;;5039788;28;20038;-80
2024/02/29 12:05:12;;;;;;;8.38;2.58;;;16.40;71.70;;;;;;5029914;28;20498;-80
2024/02/29 12:07:57;;;;;;;6.93;2.75;;;16.40;71.60;;;;;;5033918;28;20040;-79
2024/02/29 12:10:43;;;;;;;6.70;2.72;;;16.30;71.40;;;;;;5032887;28;20145;-78
2024/02/29 12:13:29;;;;;;;6.57;1.83;;;16.30;71.30;;;;;;5045073;28;20100;-79
2024/02/29 12:16:15;;;;;;;4.07;2.22;;;16.20;71.10;;;;;;5024939;28;20079;-79
2024/02/29 12:19:00;;;;;;;5.78;2.03;;;16.20;71.00;;;;;;5036695;28;20063;-79
2024/02/29 12:21:45;;;;;;;7.25;2.03;;;16.10;70.90;;;;;;5033006;28;20067;-79
2024/02/29 12:24:33;;;;;;;6.55;2.00;;;16.10;70.90;;;;;;5033741;28;20167;-79
2024/02/29 12:27:17;;;;;;;5.90;2.63;;;16.10;70.90;;;;;;5021496;28;20082;-79
2024/02/29 12:30:03;;;;;;;5.22;1.75;;;16.00;70.80;;;;;;5034641;28;20140;-79
2024/02/29 12:32:48;;;;;;;6.45;2.85;;;16.00;70.80;;;;;;5037638;28;20145;-78
2024/02/29 12:35:33;;;;;;;6.60;1.67;;;15.90;70.60;;;;;;5029664;28;20464;-78
2024/02/29 12:38:20;;;;;;;8.93;2.67;;;15.90;70.60;;;;;;5035697;28;20032;-78
2024/02/29 12:41:06;;;;;;;7.75;1.65;;;15.90;70.50;;;;;;5027708;28;20703;-78
2024/02/29 12:43:54;;;;;;;6.80;1.85;;;15.90;70.50;;;;;;5035516;28;20044;-78
2024/02/29 12:46:38;;;;;;;4.68;1.83;;;15.90;70.50;;;;;;5024534;28;20544;-79
2024/02/29 12:49:23;;;;;;;5.47;1.45;;;15.90;70.50;;;;;;5033872;28;20055;-79
2024/02/29 12:52:07;;;;;;;8.50;2.25;;;15.80;70.20;;;;;;5028687;28;20090;-81
2024/02/29 12:54:52;;;;;;;6.18;1.58;;;15.90;70.30;;;;;;5040928;28;20048;-80
2024/02/29 12:57:36;;;;;;;6.35;2.10;;;15.80;70.10;;;;;;5034903;28;20098;-82
2024/02/29 13:00:23;;;;;;;6.40;2.08;;;15.80;70.10;;;;;;5031659;28;20115;-82
2024/02/29 13:03:07;;;;;;;5.05;1.17;;;15.80;70.00;;;;;;5045822;28;20055;-81
2024/02/29 13:05:53;;;;;;;7.72;1.90;;;15.80;70.00;;;;;;5035698;28;20117;-81
2024/02/29 13:08:38;;;;;;;6.45;2.00;;;15.80;70.00;;;;;;5033655;28;20075;-82
2024/02/29 13:11:22;;;;;;;7.05;2.08;;;15.80;69.90;;;;;;5027505;28;20048;-82
2024/02/29 13:14:07;;;;;;;8.57;2.30;;;15.80;69.80;;;;;;5029954;28;20420;-82
2024/02/29 13:16:52;;;;;;;5.65;2.05;;;15.90;69.80;;;;;;5014737;28;20103;-81
2024/02/29 13:19:36;;;;;;;10.00;2.88;;;15.90;69.60;;;;;;5029676;28;20102;-82
2024/02/29 13:22:21;;;;;;;5.20;1.63;;;15.90;69.50;;;;;;5031086;28;20059;-81
2024/02/29 13:25:06;;;;;;;8.40;2.85;;;16.00;69.60;;;;;;5036096;28;20059;-81
2024/02/29 13:27:51;;;;;;;5.90;1.75;;;16.00;69.40;;;;;;5032275;28;20040;-81
2024/02/29 13:30:35;;;;;;;9.18;2.15;;;16.00;69.30;;;;;;5027830;28;20055;-80
2024/02/29 13:33:20;;;;;;;10.25;2.45;;;16.00;69.20;;;;;;5030457;28;20446;-80
2024/02/29 13:36:04;;;;;;;8.00;2.28;;;16.10;69.80;;;;;;5032074;28;20758;-80
2024/02/29 13:38:49;;;;;;;6.32;2.00;;;16.10;69.10;;;;;;5034566;28;20817;-79
2024/02/29 13:41:34;;;;;;;7.32;1.80;;;16.10;69.10;;;;;;5032161;28;20688;-80
2024/02/29 13:44:18;;;;;;;8.48;1.95;;;16.20;69.10;;;;;;5032287;28;20095;-79
2024/02/29 13:47:05;;;;;;;10.23;2.72;;;16.20;69.00;;;;;;5034184;28;20044;-79
2024/02/29 13:49:50;;;;;;;8.07;3.38;;;16.20;68.80;;;;;;5036854;28;20524;-79
2024/02/29 13:52:34;;;;;;;8.40;3.03;;;16.30;68.90;;;;;;5028226;28;20068;-81
2024/02/29 13:55:19;;;;;;;9.20;2.60;;;16.30;68.60;;;;;;5027792;28;20044;-80
2024/02/29 13:58:03;;;;;;;7.18;2.45;;;16.40;68.60;;;;;;5033291;28;20044;-82
2024/02/29 14:00:48;;;;;;;5.93;2.40;;;16.40;68.40;;;;;;5026325;28;20271;-81
2024/02/29 14:03:32;;;;;;;5.88;1.88;;;16.50;68.50;;;;;;5006994;28;20439;-80
2024/02/29 14:06:18;;;;;;;5.57;2.60;;;16.50;68.30;;;;;;5031537;28;20135;-80
2024/02/29 14:09:09;;;;;;;7.72;2.30;;;16.50;68.20;;;;;;5027133;28;20056;-80
2024/02/29 14:11:54;;;;;;;8.30;3.17;;;16.50;68.00;;;;;;5023707;28;20082;-80
2024/02/29 14:14:39;;;;;;;6.30;1.83;;;16.50;67.90;;;;;;5030964;28;20075;-81
2024/02/29 14:17:24;;;;;;;7.95;2.40;;;16.60;68.00;;;;;;5035350;28;20047;-80
2024/02/29 14:20:08;;;;;;;6.82;1.90;;;16.60;67.80;;;;;;5029834;28;20409;-80